Weerstation
Sluispark-LeuvenLeuven-Sluispark



Nabijgelegen vliegvelden - METAR rapporten

   
EBBR - Wilsele bij Leuven
Gewijzigd: 22-05-2019 01:20
Gedeeltelijk bewolkt    Wind: NW 5.6 km/h
Gedeeltelijk bewolkt
Wind: Wind: NW 5.6 km/h
Temperatuur: 9°C
Voelt als: 8°C
Dauwpunt: 8°C
Vochtigheid: 94%
Barometer: 1019 hPa
Bewolking: Gedeeltelijk bewolkt
Zicht: meer dan 10 km
Bewolking: Gedeeltelijk bewolkt 243.8 m
EBBR 212320Z 32003KT 9999 SCT008 09/08 Q1019 BECMG 4000 BR BKN008
EBAW - Antwerp
Gewijzigd: 22-05-2019 01:20
Grotendeels bewolkt    Wind: WNW 5.6 km/h
Grotendeels bewolkt
Wind: Wind: WNW 5.6 km/h
Temperatuur: 11°C
Dauwpunt: 9°C
Vochtigheid: 88%
Barometer: 1019 hPa
Bewolking: Grotendeels bewolkt
Zicht: 9 km
Bewolking: Grotendeels bewolkt 365.8 m
EBAW 212320Z AUTO 30003KT 280V340 9000 // BKN012/// 11/09 Q1019
EBLG - Li├Ęge
Gewijzigd: 22-05-2019 01:20
Grotendeels bewolkt    Wind: WNW 7.4 km/h
Grotendeels bewolkt
Wind: Wind: WNW 7.4 km/h
Temperatuur: 10°C
Voelt als: 9°C
Dauwpunt: 8°C
Vochtigheid: 88%
Barometer: 1019 hPa
Bewolking: Grotendeels bewolkt
Zicht: 7 km
Bewolking: Gedeeltelijk bewolkt 243.8 m,
Grotendeels bewolkt 274.3 m
EBLG 212320Z 30004KT 270V340 7000 SCT008 BKN009 10/08 Q1019 NOSIG
EBCV - Mons/Bergen
Gewijzigd: 22-05-2019 01:33
Helder    Wind: varieert 1.9 km/h
Helder
Wind: Wind: varieert 1.9 km/h
Temperatuur: 8°C
Dauwpunt: 7°C
Vochtigheid: 93%
Barometer: 1020 hPa
Bewolking: Helder
Zicht: 5 km
Bewolking: Helder
EBCV 212333Z AUTO VRB01KT 4700 NCD 08/07 Q1020 GRN
EHBK - Maastricht
Gewijzigd: 22-05-2019 01:25
Bewolking    Wind: WNW 7.4 km/h
Bewolking
Wind: Wind: WNW 7.4 km/h
Temperatuur: 10°C
Voelt als: 9°C
Dauwpunt: 8°C
Vochtigheid: 88%
Barometer: 1018 hPa
Bewolking: Bewolking
Zicht: meer dan 10 km
Bewolking: Gedeeltelijk bewolkt 396.2 m,
Bewolking 487.7 m
EHBK 212325Z AUTO 29004KT 250V330 9999 SCT013 OVC016 10/08 Q1018
ELLX - Luxemburg
Gewijzigd: 22-05-2019 01:20
Helder    Wind: WNW 14.8 km/h
Helder
Wind: Wind: WNW 14.8 km/h
Temperatuur: 10°C
Voelt als: 8°C
Dauwpunt: 6°C
Vochtigheid: 76%
Barometer: 1018 hPa
Bewolking: Helder
Zicht: meer dan 10 km
Bewolking: Helder
ELLX 212320Z AUTO 30008KT 9999 NCD 10/06 Q1018 NOSIG
EBOS - Oostende
Gewijzigd: 22-05-2019 01:20
Shallow Fog, Nevel, Gedeeltelijk bewolkt    Wind: varieert 1.9 km/h
Shallow Fog, Nevel, Gedeeltelijk bewolkt
Wind: Wind: varieert 1.9 km/h
Temperatuur: 6°C
Dauwpunt: 6°C
Vochtigheid: 100%
Barometer: 1019 hPa
Bewolking: Gedeeltelijk bewolkt
Zicht: 2 km
Bewolking: Gedeeltelijk bewolkt
EBOS 212320Z VRB01KT 1600 R08/0200N R26/0325N MIFG BR NSC 06/06 Q1019 TEMPO 0800 BCFG
  

Script ontwikkeld door  Saratoga-weather.org Aangepast voor de template door  Weerstation Leuven

U vindt ons ook hier:

UK Metoffice

WeatherCloud

European Weather Network

Weather Underground

Benelux Weather Network

AWEKAS

WeatherlinkIP

Het Weer Aktueel

Apparatuur in gebruik:

Weer-station
Davis VP2 weatherstation

Weer-programma
Meteobridge

Weer-computer
D-Link DIR-505

Webleverancier
Robohost

Davis VP2 weatherstation

Meteobridge

D-Link DIR-505

Robohost